createdAt,value
2018-10-17T00:00:04.010Z,13.05
2018-10-17T00:02:31.294Z,12.99
2018-10-17T00:04:58.739Z,12.90
2018-10-17T00:07:25.998Z,12.73
2018-10-17T00:09:53.359Z,12.74
2018-10-17T00:12:20.581Z,12.67
2018-10-17T00:14:47.921Z,12.64
2018-10-17T00:17:15.255Z,12.59
2018-10-17T00:19:42.544Z,12.50
2018-10-17T00:22:09.822Z,12.54
2018-10-17T00:24:37.053Z,12.48
2018-10-17T00:27:04.776Z,12.43
2018-10-17T00:29:32.058Z,12.47
2018-10-17T00:31:59.375Z,12.50
2018-10-17T00:34:26.649Z,12.46
2018-10-17T00:36:54.070Z,12.51
2018-10-17T00:39:21.410Z,12.49
2018-10-17T00:41:48.641Z,12.45
2018-10-17T00:44:16.751Z,12.37
2018-10-17T00:46:44.099Z,12.32
2018-10-17T00:49:11.423Z,12.13
2018-10-17T00:51:38.707Z,11.82
2018-10-17T00:54:06.035Z,11.70
2018-10-17T00:56:33.305Z,11.55
2018-10-17T00:59:10.037Z,11.60
2018-10-17T01:01:37.776Z,11.67
2018-10-17T01:04:05.556Z,11.45
2018-10-17T01:06:33.291Z,11.33
2018-10-17T01:09:01.998Z,11.32
2018-10-17T01:11:29.573Z,11.44
2018-10-17T01:13:56.801Z,11.54
2018-10-17T01:16:24.098Z,11.60
2018-10-17T01:18:51.386Z,11.56
2018-10-17T01:21:18.845Z,11.45
2018-10-17T01:23:46.231Z,11.54
2018-10-17T01:26:13.648Z,11.48
2018-10-17T01:28:41.124Z,11.45
2018-10-17T01:31:08.360Z,11.38
2018-10-17T01:33:35.759Z,11.45
2018-10-17T01:36:04.909Z,11.40
2018-10-17T01:38:32.259Z,11.46
2018-10-17T01:40:59.510Z,11.48
2018-10-17T01:43:26.836Z,11.37
2018-10-17T01:45:54.115Z,11.38
2018-10-17T01:48:21.355Z,11.39
2018-10-17T01:50:48.634Z,11.39
2018-10-17T01:53:16.048Z,11.39
2018-10-17T01:55:43.277Z,11.42
2018-10-17T01:58:10.534Z,11.46
2018-10-17T02:00:37.882Z,11.43
2018-10-17T02:03:05.164Z,11.24
2018-10-17T02:05:32.502Z,11.12
2018-10-17T02:07:59.773Z,11.15
2018-10-17T02:10:27.080Z,11.28
2018-10-17T02:12:54.565Z,11.32
2018-10-17T02:15:22.074Z,11.35
2018-10-17T02:17:49.377Z,11.34
2018-10-17T02:20:16.692Z,11.32
2018-10-17T02:22:43.990Z,11.30
2018-10-17T02:25:11.460Z,11.25
2018-10-17T02:27:38.773Z,11.23
2018-10-17T02:30:06.323Z,11.27
2018-10-17T02:32:33.522Z,11.19
2018-10-17T02:35:06.573Z,11.12
2018-10-17T02:37:33.766Z,11.07
2018-10-17T02:40:01.167Z,11.04
2018-10-17T02:42:28.429Z,10.80
2018-10-17T02:44:55.924Z,10.75
2018-10-17T02:47:23.299Z,10.56
2018-10-17T02:49:50.630Z,10.67
2018-10-17T02:52:17.944Z,10.70
2018-10-17T02:54:45.242Z,10.76
2018-10-17T02:57:12.537Z,10.80
2018-10-17T02:59:39.845Z,10.80
2018-10-17T03:02:07.054Z,10.89
2018-10-17T03:04:34.396Z,10.89
2018-10-17T03:07:01.701Z,10.85
2018-10-17T03:09:28.996Z,10.82
2018-10-17T03:11:56.375Z,10.76
2018-10-17T03:14:23.748Z,10.68
2018-10-17T03:16:51.044Z,10.60
2018-10-17T03:19:18.424Z,10.55
2018-10-17T03:21:45.669Z,10.57
2018-10-17T03:24:12.957Z,10.60
2018-10-17T03:26:40.310Z,10.62
2018-10-17T03:29:08.074Z,10.66
2018-10-17T03:31:35.327Z,10.71
2018-10-17T03:34:02.616Z,10.77
2018-10-17T03:36:29.882Z,10.70
2018-10-17T03:38:57.221Z,10.66
2018-10-17T03:41:24.464Z,10.64
2018-10-17T03:43:51.723Z,10.65
2018-10-17T03:46:18.983Z,10.64
2018-10-17T03:48:46.329Z,10.56
2018-10-17T03:51:13.639Z,10.57
2018-10-17T03:53:40.980Z,10.60
2018-10-17T03:56:08.285Z,10.64
2018-10-17T03:58:35.559Z,10.61
2018-10-17T04:01:03.011Z,10.62
2018-10-17T04:03:30.231Z,10.61
2018-10-17T04:05:57.487Z,10.49
2018-10-17T04:08:24.798Z,10.25
2018-10-17T04:10:52.055Z,10.40
2018-10-17T04:13:19.418Z,10.44
2018-10-17T04:15:46.693Z,10.37
2018-10-17T04:18:14.002Z,10.35
2018-10-17T04:20:41.366Z,10.41
2018-10-17T04:23:08.524Z,10.38
2018-10-17T04:25:35.847Z,10.36
2018-10-17T04:28:03.321Z,10.38
2018-10-17T04:30:30.648Z,10.41
2018-10-17T04:32:57.884Z,10.42
2018-10-17T04:35:25.215Z,10.42
2018-10-17T04:37:52.629Z,10.43
2018-10-17T04:40:19.871Z,10.34
2018-10-17T04:42:47.323Z,10.39
2018-10-17T04:45:14.618Z,10.31
2018-10-17T04:47:41.940Z,10.30
2018-10-17T04:50:10.316Z,10.35
2018-10-17T04:52:37.774Z,10.35
2018-10-17T04:55:05.732Z,10.29
2018-10-17T04:57:33.111Z,10.34
2018-10-17T05:00:00.871Z,10.29
2018-10-17T05:02:28.186Z,10.17
2018-10-17T05:04:55.552Z,10.08
2018-10-17T05:07:22.820Z,10.13
2018-10-17T05:09:50.165Z,10.12
2018-10-17T05:12:17.506Z,10.04
2018-10-17T05:14:44.947Z,10.01
2018-10-17T05:17:12.287Z,10.07
2018-10-17T05:19:39.688Z,10.02
2018-10-17T05:22:07.244Z,9.95
2018-10-17T05:24:34.529Z,9.90
2018-10-17T05:27:01.849Z,9.77
2018-10-17T05:29:29.141Z,9.79
2018-10-17T05:31:56.453Z,9.79
2018-10-17T05:34:23.790Z,9.88
2018-10-17T05:36:51.091Z,9.76
2018-10-17T05:39:18.396Z,9.78
2018-10-17T05:41:45.689Z,9.74
2018-10-17T05:44:12.918Z,9.74
2018-10-17T05:46:40.220Z,9.80
2018-10-17T05:49:07.514Z,9.83
2018-10-17T05:51:34.774Z,9.83
2018-10-17T05:54:02.090Z,9.72
2018-10-17T05:58:01.235Z,9.77
2018-10-17T06:00:28.596Z,9.78
2018-10-17T06:02:55.804Z,9.81
2018-10-17T06:05:23.049Z,9.89
2018-10-17T06:07:50.348Z,9.89
2018-10-17T06:10:17.619Z,9.94
2018-10-17T06:12:44.873Z,10.09
2018-10-17T06:15:12.147Z,10.14
2018-10-17T06:17:39.456Z,10.16
2018-10-17T06:20:07.073Z,10.17
2018-10-17T06:22:34.311Z,10.11
2018-10-17T06:25:01.794Z,10.10
2018-10-17T06:27:29.110Z,10.16
2018-10-17T06:29:56.390Z,10.25
2018-10-17T06:32:23.689Z,10.42
2018-10-17T06:34:51.093Z,10.55
2018-10-17T06:37:18.416Z,10.60
2018-10-17T06:39:45.698Z,10.72
2018-10-17T06:42:13.025Z,11.06
2018-10-17T06:44:40.432Z,11.56
2018-10-17T06:47:07.955Z,11.99
2018-10-17T06:49:35.180Z,12.27
2018-10-17T06:52:02.488Z,12.71
2018-10-17T06:54:30.152Z,13.66
2018-10-17T06:56:57.312Z,14.53
2018-10-17T06:59:24.648Z,15.09
2018-10-17T07:01:52.014Z,15.54
2018-10-17T07:04:20.065Z,16.22
2018-10-17T07:06:47.367Z,16.88
2018-10-17T07:09:14.727Z,17.57
2018-10-17T07:11:42.007Z,18.68
2018-10-17T07:14:09.294Z,19.46
2018-10-17T07:16:36.583Z,19.75
2018-10-17T07:19:04.143Z,20.36
2018-10-17T07:21:31.464Z,20.77
2018-10-17T07:23:58.794Z,21.30
2018-10-17T07:26:26.076Z,21.64
2018-10-17T07:28:53.981Z,21.93
2018-10-17T07:31:21.196Z,21.92
2018-10-17T07:33:48.560Z,22.14
2018-10-17T07:36:15.970Z,21.56
2018-10-17T07:38:43.226Z,21.27
2018-10-17T07:41:10.539Z,21.17
2018-10-17T07:43:37.821Z,20.74
2018-10-17T07:46:05.125Z,20.70
2018-10-17T07:48:32.331Z,20.61
2018-10-17T07:50:59.649Z,20.76
2018-10-17T07:53:26.938Z,21.10
2018-10-17T07:55:54.224Z,21.48
2018-10-17T07:58:22.863Z,22.08
2018-10-17T08:00:50.148Z,22.91
2018-10-17T08:03:17.465Z,23.42
2018-10-17T08:05:44.694Z,23.85
2018-10-17T08:08:11.997Z,23.93
2018-10-17T08:10:39.351Z,24.21
2018-10-17T08:13:06.675Z,24.57
2018-10-17T08:15:34.168Z,24.92
2018-10-17T08:18:01.464Z,25.15
2018-10-17T08:20:28.696Z,25.16
2018-10-17T08:22:56.008Z,25.49
2018-10-17T08:25:23.328Z,25.21
2018-10-17T08:27:50.633Z,25.15
2018-10-17T08:30:17.927Z,26.11
2018-10-17T08:32:45.224Z,26.92
2018-10-17T08:35:12.538Z,27.21
2018-10-17T08:37:40.230Z,26.86
2018-10-17T08:40:07.129Z,26.46
2018-10-17T08:42:34.472Z,25.92
2018-10-17T08:45:01.829Z,26.60
2018-10-17T08:47:29.162Z,26.66
2018-10-17T08:49:56.839Z,26.88
2018-10-17T08:52:24.268Z,26.92
2018-10-17T08:54:51.638Z,27.21
2018-10-17T08:57:18.956Z,27.64
2018-10-17T08:59:46.167Z,27.73
2018-10-17T09:02:13.530Z,28.41
2018-10-17T09:04:40.678Z,28.82
2018-10-17T09:07:07.925Z,28.96
2018-10-17T09:09:35.175Z,29.19
2018-10-17T09:12:02.477Z,29.54
2018-10-17T09:14:29.729Z,29.43
2018-10-17T09:16:57.021Z,29.27
2018-10-17T09:19:24.392Z,29.06
2018-10-17T09:21:52.088Z,29.06
2018-10-17T09:24:19.184Z,29.02
2018-10-17T09:26:46.585Z,28.92
2018-10-17T09:29:13.907Z,29.02
2018-10-17T09:31:41.193Z,29.36
2018-10-17T09:34:08.534Z,29.57
2018-10-17T09:36:35.819Z,29.81
2018-10-17T09:39:04.282Z,29.96
2018-10-17T09:41:31.573Z,30.12
2018-10-17T09:43:58.918Z,29.93
2018-10-17T09:46:26.261Z,30.00
2018-10-17T09:48:53.504Z,30.27
2018-10-17T09:51:20.799Z,30.10
2018-10-17T09:53:48.093Z,30.27
2018-10-17T09:56:15.347Z,30.18
2018-10-17T09:58:42.663Z,30.14
2018-10-17T10:01:15.714Z,29.91
2018-10-17T10:03:43.022Z,30.43
2018-10-17T10:06:10.409Z,29.29
2018-10-17T10:08:37.721Z,29.20
2018-10-17T10:11:05.616Z,28.90
2018-10-17T10:13:32.899Z,28.69
2018-10-17T10:16:00.221Z,28.94
2018-10-17T10:18:27.439Z,28.53
2018-10-17T10:20:54.691Z,28.74
2018-10-17T10:23:22.108Z,28.71
2018-10-17T10:25:49.442Z,28.35
2018-10-17T10:28:16.937Z,27.84
2018-10-17T10:30:44.215Z,28.03
2018-10-17T10:33:11.469Z,27.79
2018-10-17T10:35:38.698Z,27.38
2018-10-17T10:38:06.267Z,27.43
2018-10-17T10:40:34.002Z,28.65
2018-10-17T10:43:01.516Z,29.52
2018-10-17T10:45:28.896Z,29.69
2018-10-17T10:47:56.141Z,29.88
2018-10-17T10:50:23.466Z,30.61
2018-10-17T10:52:50.805Z,31.29
2018-10-17T10:55:18.005Z,31.69
2018-10-17T10:57:45.275Z,31.31
2018-10-17T11:00:12.721Z,30.88
2018-10-17T11:02:40.053Z,30.47
2018-10-17T11:05:07.520Z,30.62
2018-10-17T11:07:34.808Z,30.31
2018-10-17T11:10:02.298Z,30.81
2018-10-17T11:12:29.669Z,30.80
2018-10-17T11:15:01.265Z,31.03
2018-10-17T11:17:28.321Z,30.97
2018-10-17T11:19:55.615Z,31.49
2018-10-17T11:22:22.931Z,31.67
2018-10-17T11:24:50.348Z,31.82
2018-10-17T11:27:17.753Z,32.25
2018-10-17T11:29:44.965Z,32.29
2018-10-17T11:32:12.270Z,31.77
2018-10-17T11:34:39.603Z,31.46
2018-10-17T11:37:06.863Z,31.73
2018-10-17T11:39:34.229Z,31.67
2018-10-17T11:42:01.535Z,31.83
2018-10-17T11:44:28.816Z,32.01
2018-10-17T11:46:56.089Z,32.28
2018-10-17T11:49:23.435Z,32.33
2018-10-17T11:51:51.373Z,32.30
2018-10-17T11:54:18.708Z,32.07
2018-10-17T11:56:46.094Z,31.97
2018-10-17T11:59:13.453Z,31.77
2018-10-17T12:01:40.702Z,31.48
2018-10-17T12:04:08.222Z,31.61
2018-10-17T12:06:35.554Z,31.50
2018-10-17T12:09:03.913Z,31.27
2018-10-17T12:11:31.264Z,30.58
2018-10-17T12:13:58.467Z,30.48
2018-10-17T12:16:25.773Z,30.77
2018-10-17T12:18:53.135Z,30.88
2018-10-17T12:21:20.402Z,30.82
2018-10-17T12:23:47.679Z,30.56
2018-10-17T12:26:15.046Z,30.35
2018-10-17T12:28:42.422Z,29.92
2018-10-17T12:31:09.657Z,29.68
2018-10-17T12:33:36.943Z,29.63
2018-10-17T12:36:06.271Z,29.96
2018-10-17T12:38:33.542Z,30.26
2018-10-17T12:41:00.991Z,30.01
2018-10-17T12:43:28.141Z,30.34
2018-10-17T12:45:55.510Z,30.53
2018-10-17T12:48:22.821Z,30.70
2018-10-17T12:50:50.101Z,30.74
2018-10-17T12:53:17.471Z,30.70
2018-10-17T12:55:44.951Z,30.27
2018-10-17T12:58:12.258Z,30.08
2018-10-17T13:00:39.537Z,29.98
2018-10-17T13:03:06.845Z,30.22
2018-10-17T13:05:34.479Z,30.59
2018-10-17T13:08:01.835Z,30.69
2018-10-17T13:10:29.147Z,30.35
2018-10-17T13:12:56.457Z,30.39
2018-10-17T13:15:23.686Z,30.21
2018-10-17T13:17:50.992Z,30.00
2018-10-17T13:20:18.268Z,29.22
2018-10-17T13:22:45.579Z,28.66
2018-10-17T13:25:12.898Z,28.78
2018-10-17T13:27:40.163Z,28.73
2018-10-17T13:30:07.848Z,28.43
2018-10-17T13:32:35.154Z,28.39
2018-10-17T13:35:02.403Z,28.61
2018-10-17T13:37:29.723Z,28.66
2018-10-17T13:39:57.031Z,28.98
2018-10-17T13:42:24.340Z,29.43
2018-10-17T13:44:51.604Z,29.63
2018-10-17T13:47:19.054Z,29.87
2018-10-17T13:49:46.442Z,30.16
2018-10-17T13:52:13.561Z,30.14
2018-10-17T13:54:40.829Z,29.56
2018-10-17T13:57:08.120Z,29.53
2018-10-17T13:59:35.503Z,29.36
2018-10-17T14:02:02.810Z,28.97
2018-10-17T14:04:30.132Z,28.91
2018-10-17T14:06:57.446Z,28.92
2018-10-17T14:09:24.756Z,28.74
2018-10-17T14:11:52.141Z,28.54
2018-10-17T14:14:19.496Z,28.25
2018-10-17T14:16:46.927Z,27.98
2018-10-17T14:19:14.331Z,27.56
2018-10-17T14:21:41.589Z,27.45
2018-10-17T14:24:09.016Z,27.34
2018-10-17T14:26:36.309Z,27.18
2018-10-17T14:29:03.632Z,26.91
2018-10-17T14:31:30.892Z,26.86
2018-10-17T14:33:58.187Z,26.79
2018-10-17T14:36:25.566Z,26.61
2018-10-17T14:38:52.825Z,26.44
2018-10-17T14:41:20.271Z,26.35
2018-10-17T14:43:47.505Z,26.22
2018-10-17T14:46:14.774Z,25.98
2018-10-17T14:48:42.074Z,25.94
2018-10-17T14:51:09.348Z,25.93
2018-10-17T14:53:36.631Z,25.93
2018-10-17T14:56:04.087Z,25.90
2018-10-17T14:58:31.303Z,25.83
2018-10-17T15:00:58.599Z,25.82
2018-10-17T15:03:25.980Z,25.70
2018-10-17T15:05:53.349Z,25.50
2018-10-17T15:08:20.634Z,25.38
2018-10-17T15:10:47.998Z,25.23
2018-10-17T15:13:15.222Z,25.13
2018-10-17T15:15:44.081Z,25.05
2018-10-17T15:18:11.541Z,24.99
2018-10-17T15:20:38.770Z,24.91
2018-10-17T15:23:06.192Z,24.80
2018-10-17T15:25:33.495Z,24.77
2018-10-17T15:28:00.764Z,24.69
2018-10-17T15:30:28.051Z,24.63
2018-10-17T15:32:55.417Z,24.57
2018-10-17T15:35:22.749Z,24.48
2018-10-17T15:37:50.090Z,24.34
2018-10-17T15:40:17.346Z,24.32
2018-10-17T15:42:44.647Z,24.06
2018-10-17T15:45:12.111Z,23.98
2018-10-17T15:47:39.288Z,23.98
2018-10-17T15:50:06.620Z,23.90
2018-10-17T15:52:33.945Z,23.72
2018-10-17T15:55:01.241Z,23.56
2018-10-17T15:57:28.520Z,23.30
2018-10-17T15:59:56.172Z,23.14
2018-10-17T16:02:23.588Z,23.08
2018-10-17T16:04:50.925Z,23.00
2018-10-17T16:07:18.349Z,22.92
2018-10-17T16:09:45.572Z,22.83
2018-10-17T16:12:13.022Z,22.69
2018-10-17T16:14:40.476Z,22.52
2018-10-17T16:17:07.875Z,22.33
2018-10-17T16:19:35.138Z,22.13
2018-10-17T16:22:02.383Z,21.99
2018-10-17T16:24:29.668Z,21.87
2018-10-17T16:26:57.052Z,21.62
2018-10-17T16:29:24.271Z,21.43
2018-10-17T16:31:51.549Z,21.27
2018-10-17T16:34:18.864Z,21.10
2018-10-17T16:36:46.191Z,20.93
2018-10-17T16:39:13.455Z,20.85
2018-10-17T16:41:40.838Z,20.78
2018-10-17T16:44:08.583Z,20.61
2018-10-17T16:46:36.171Z,20.53
2018-10-17T16:49:03.627Z,20.47
2018-10-17T16:51:31.109Z,20.37
2018-10-17T16:53:58.613Z,20.26
2018-10-17T16:56:25.881Z,20.16
2018-10-17T16:58:53.468Z,20.12
2018-10-17T17:01:20.687Z,19.99
2018-10-17T17:03:47.919Z,19.90
2018-10-17T17:06:15.288Z,19.82
2018-10-17T17:08:42.578Z,19.67
2018-10-17T17:11:09.913Z,19.54
2018-10-17T17:13:37.244Z,19.49
2018-10-17T17:16:04.744Z,19.44
2018-10-17T17:18:32.057Z,19.31
2018-10-17T17:20:59.404Z,19.38
2018-10-17T17:23:26.753Z,19.27
2018-10-17T17:25:54.189Z,19.23
2018-10-17T17:28:21.537Z,19.19
2018-10-17T17:30:48.802Z,19.14
2018-10-17T17:33:16.291Z,19.08
2018-10-17T17:35:43.490Z,19.02
2018-10-17T17:38:10.820Z,18.93
2018-10-17T17:40:38.094Z,18.84
2018-10-17T17:43:05.814Z,18.75
2018-10-17T17:45:33.335Z,18.75
2018-10-17T17:48:00.580Z,18.62
2018-10-17T17:50:27.825Z,18.61
2018-10-17T17:52:55.132Z,18.64
2018-10-17T17:55:22.416Z,18.60
2018-10-17T17:57:49.912Z,18.50
2018-10-17T18:00:17.185Z,18.47
2018-10-17T18:02:44.488Z,18.43
2018-10-17T18:05:11.832Z,18.42
2018-10-17T18:07:39.228Z,18.43
2018-10-17T18:10:07.040Z,18.34
2018-10-17T18:12:34.309Z,18.38
2018-10-17T18:15:01.677Z,18.39
2018-10-17T18:17:29.123Z,18.35
2018-10-17T18:19:56.482Z,18.28
2018-10-17T18:22:23.869Z,18.28
2018-10-17T18:27:27.816Z,18.16
2018-10-17T18:29:55.162Z,18.13
2018-10-17T18:32:22.495Z,18.15
2018-10-17T18:34:49.859Z,18.06
2018-10-17T18:37:17.131Z,18.06
2018-10-17T18:39:44.436Z,18.07
2018-10-17T18:42:11.764Z,17.98
2018-10-17T18:44:39.051Z,17.90
2018-10-17T18:47:06.428Z,17.86
2018-10-17T18:49:33.674Z,17.87
2018-10-17T18:52:00.969Z,17.74
2018-10-17T18:54:28.258Z,17.69
2018-10-17T18:56:55.515Z,17.67
2018-10-17T18:59:22.852Z,17.58
2018-10-17T19:01:50.145Z,17.58
2018-10-17T19:04:17.410Z,17.58
2018-10-17T19:06:44.891Z,17.49
2018-10-17T19:09:13.381Z,17.49
2018-10-17T19:11:40.616Z,17.38
2018-10-17T19:14:08.292Z,17.30
2018-10-17T19:16:35.620Z,17.34
2018-10-17T19:19:03.473Z,17.33
2018-10-17T19:21:30.843Z,17.36
2018-10-17T19:23:58.440Z,17.33
2018-10-17T19:26:25.692Z,17.38
2018-10-17T19:28:52.971Z,17.47
2018-10-17T19:31:20.295Z,17.46
2018-10-17T19:33:47.702Z,17.44
2018-10-17T19:36:15.045Z,17.38
2018-10-17T19:38:42.404Z,17.34
2018-10-17T19:41:10.293Z,17.31
2018-10-17T19:43:37.607Z,17.13
2018-10-17T19:46:04.953Z,17.03
2018-10-17T19:48:32.227Z,17.04
2018-10-17T19:50:59.550Z,16.96
2018-10-17T19:53:26.815Z,16.89
2018-10-17T19:55:54.362Z,16.77
2018-10-17T19:58:21.709Z,16.76
2018-10-17T20:00:49.006Z,16.75
2018-10-17T20:03:16.401Z,16.72
2018-10-17T20:05:43.643Z,16.62
2018-10-17T20:08:11.178Z,16.60
2018-10-17T20:10:38.508Z,16.43
2018-10-17T20:13:05.843Z,16.48
2018-10-17T20:15:33.162Z,16.45
2018-10-17T20:18:00.447Z,16.44
2018-10-17T20:20:27.843Z,16.41
2018-10-17T20:22:55.227Z,16.40
2018-10-17T20:25:22.541Z,16.44
2018-10-17T20:27:49.893Z,16.35
2018-10-17T20:30:17.405Z,16.30
2018-10-17T20:32:44.611Z,16.30
2018-10-17T20:35:12.085Z,16.12
2018-10-17T20:37:39.420Z,16.29
2018-10-17T20:40:06.797Z,16.26
2018-10-17T20:42:34.047Z,16.22
2018-10-17T20:45:01.353Z,16.17
2018-10-17T20:47:28.633Z,15.98
2018-10-17T20:49:56.003Z,15.95
2018-10-17T20:52:23.474Z,15.86
2018-10-17T20:54:50.591Z,15.85
2018-10-17T20:57:17.833Z,15.83
2018-10-17T20:59:45.064Z,15.85
2018-10-17T21:02:12.478Z,15.83
2018-10-17T21:04:39.702Z,15.75
2018-10-17T21:07:07.047Z,15.67
2018-10-17T21:09:34.279Z,15.72
2018-10-17T21:12:01.634Z,15.68
2018-10-17T21:14:29.010Z,15.73
2018-10-17T21:16:56.263Z,15.78
2018-10-17T21:19:23.588Z,15.75
2018-10-17T21:21:50.892Z,15.74
2018-10-17T21:24:18.191Z,15.66
2018-10-17T21:26:45.549Z,15.51
2018-10-17T21:29:12.790Z,15.39
2018-10-17T21:31:40.080Z,15.32
2018-10-17T21:34:07.332Z,15.36
2018-10-17T21:36:34.612Z,15.34
2018-10-17T21:39:01.960Z,15.36
2018-10-17T21:41:29.255Z,15.32
2018-10-17T21:43:56.556Z,15.29
2018-10-17T21:46:23.899Z,15.22
2018-10-17T21:48:51.175Z,15.21
2018-10-17T21:51:18.461Z,15.19
2018-10-17T21:53:45.725Z,15.14
2018-10-17T21:56:13.130Z,15.16
2018-10-17T21:58:40.288Z,15.06
2018-10-17T22:01:07.702Z,15.12
2018-10-17T22:03:34.993Z,15.07
2018-10-17T22:06:02.289Z,15.07
2018-10-17T22:08:29.643Z,15.04
2018-10-17T22:10:56.954Z,14.98
2018-10-17T22:13:24.197Z,14.95
2018-10-17T22:15:51.486Z,14.91
2018-10-17T22:18:18.850Z,14.78
2018-10-17T22:20:46.178Z,14.77
2018-10-17T22:23:13.437Z,14.76
2018-10-17T22:25:40.750Z,14.68
2018-10-17T22:28:08.040Z,14.74
2018-10-17T22:30:35.337Z,14.62
2018-10-17T22:33:02.656Z,14.62
2018-10-17T22:35:29.913Z,14.69
2018-10-17T22:37:57.247Z,14.62
2018-10-17T22:40:24.606Z,14.70
2018-10-17T22:42:52.002Z,14.72
2018-10-17T22:45:19.257Z,14.61
2018-10-17T22:47:46.530Z,14.60
2018-10-17T22:50:13.884Z,14.60
2018-10-17T22:52:41.235Z,14.56
2018-10-17T22:55:08.560Z,14.49
2018-10-17T22:57:35.992Z,14.35
2018-10-17T23:00:03.325Z,14.37
2018-10-17T23:02:30.645Z,14.40
2018-10-17T23:04:57.912Z,14.44
2018-10-17T23:07:25.917Z,14.49
2018-10-17T23:09:53.109Z,14.47
2018-10-17T23:12:20.423Z,14.40
2018-10-17T23:14:47.812Z,14.31
2018-10-17T23:17:15.036Z,14.28
2018-10-17T23:19:42.294Z,14.35
2018-10-17T23:22:09.619Z,14.28
2018-10-17T23:24:36.888Z,14.27
2018-10-17T23:27:04.200Z,14.28
2018-10-17T23:29:31.569Z,14.30
2018-10-17T23:31:58.813Z,14.30
2018-10-17T23:34:26.062Z,14.31
2018-10-17T23:36:53.373Z,14.26
2018-10-17T23:39:20.673Z,14.29
2018-10-17T23:41:47.926Z,14.21
2018-10-17T23:44:15.387Z,14.28
2018-10-17T23:46:42.638Z,14.26
2018-10-17T23:49:09.947Z,14.17
2018-10-17T23:51:37.266Z,14.13
2018-10-17T23:54:04.702Z,13.99
2018-10-17T23:56:31.921Z,13.91
2018-10-17T23:58:59.189Z,13.83
